createdAt,value
2017-06-12T00:01:01.227Z,22.70
2017-06-12T00:03:28.686Z,22.70
2017-06-12T00:05:56.157Z,22.60
2017-06-12T00:08:23.699Z,22.60
2017-06-12T00:10:51.156Z,22.60
2017-06-12T00:13:18.611Z,22.50
2017-06-12T00:21:42.050Z,22.50
2017-06-12T00:24:10.240Z,22.50
2017-06-12T00:26:37.711Z,22.50
2017-06-12T00:29:05.399Z,22.50
2017-06-12T00:31:32.840Z,22.50
2017-06-12T00:34:00.287Z,22.50
2017-06-12T00:36:27.751Z,22.50
2017-06-12T00:38:55.214Z,22.50
2017-06-12T00:41:22.706Z,22.50
2017-06-12T00:43:50.161Z,22.50
2017-06-12T00:46:18.031Z,22.40
2017-06-12T00:48:45.659Z,22.50
2017-06-12T00:51:13.192Z,22.40
2017-06-12T00:53:40.664Z,22.40
2017-06-12T00:56:08.183Z,22.40
2017-06-12T00:58:36.379Z,22.40
2017-06-12T01:01:03.846Z,22.40
2017-06-12T01:03:31.889Z,22.50
2017-06-12T01:05:59.384Z,22.50
2017-06-12T01:08:26.896Z,22.50
2017-06-12T01:10:54.723Z,22.50
2017-06-12T01:13:22.202Z,22.50
2017-06-12T01:15:50.189Z,22.50
2017-06-12T01:18:18.633Z,22.50
2017-06-12T01:20:46.790Z,22.50
2017-06-12T01:23:14.232Z,22.50
2017-06-12T01:25:41.710Z,22.40
2017-06-12T01:28:09.235Z,22.40
2017-06-12T01:30:37.539Z,22.40
2017-06-12T01:33:04.987Z,22.40
2017-06-12T01:35:32.731Z,22.40
2017-06-12T01:38:00.171Z,22.40
2017-06-12T01:40:27.729Z,22.40
2017-06-12T01:42:55.486Z,22.40
2017-06-12T01:45:23.312Z,22.40
2017-06-12T01:47:50.750Z,22.50
2017-06-12T01:50:18.652Z,22.50
2017-06-12T01:52:46.113Z,22.50
2017-06-12T01:55:13.553Z,22.50
2017-06-12T01:57:41.022Z,22.50
2017-06-12T02:00:09.043Z,22.50
2017-06-12T02:02:36.535Z,22.50
2017-06-12T02:05:04.059Z,22.50
2017-06-12T02:07:32.012Z,22.40
2017-06-12T02:09:59.532Z,22.40
2017-06-12T02:12:27.805Z,22.40
2017-06-12T02:14:55.308Z,22.40
2017-06-12T02:17:22.766Z,22.40
2017-06-12T02:19:50.211Z,22.40
2017-06-12T02:22:17.694Z,22.40
2017-06-12T02:24:45.151Z,22.40
2017-06-12T02:27:13.530Z,22.40
2017-06-12T02:29:41.003Z,22.40
2017-06-12T02:32:08.511Z,22.40
2017-06-12T02:34:36.310Z,22.40
2017-06-12T02:37:03.999Z,22.40
2017-06-12T02:39:31.461Z,22.40
2017-06-12T02:41:59.812Z,22.50
2017-06-12T02:44:27.488Z,22.40
2017-06-12T02:46:55.010Z,22.40
2017-06-12T02:49:22.484Z,22.40
2017-06-12T02:51:50.117Z,22.40
2017-06-12T02:54:17.629Z,22.40
2017-06-12T02:56:45.678Z,22.40
2017-06-12T02:59:13.954Z,22.40
2017-06-12T03:01:41.576Z,22.30
2017-06-12T03:04:09.420Z,22.30
2017-06-12T03:06:36.892Z,22.30
2017-06-12T03:09:05.241Z,22.30
2017-06-12T03:11:32.711Z,22.30
2017-06-12T03:14:00.187Z,22.30
2017-06-12T03:16:27.754Z,22.20
2017-06-12T03:18:55.207Z,22.20
2017-06-12T03:21:23.176Z,22.20
2017-06-12T03:23:50.796Z,22.10
2017-06-12T03:26:18.260Z,22.10
2017-06-12T03:28:47.409Z,22.10
2017-06-12T03:31:14.951Z,22.10
2017-06-12T03:33:42.421Z,22.10
2017-06-12T03:36:10.838Z,22.00
2017-06-12T03:38:39.143Z,22.00
2017-06-12T03:41:07.329Z,22.00
2017-06-12T03:43:34.955Z,22.00
2017-06-12T03:46:02.769Z,21.90
2017-06-12T03:48:30.469Z,21.90
2017-06-12T03:50:58.432Z,21.90
2017-06-12T03:53:25.896Z,21.90
2017-06-12T03:55:53.376Z,21.90
2017-06-12T03:58:21.175Z,21.90
2017-06-12T04:00:48.637Z,21.90
2017-06-12T04:03:16.089Z,21.90
2017-06-12T04:05:43.740Z,21.90
2017-06-12T04:08:11.739Z,21.90
2017-06-12T04:10:39.221Z,21.80
2017-06-12T04:13:06.732Z,21.80
2017-06-12T04:15:34.187Z,21.70
2017-06-12T04:18:01.628Z,21.80
2017-06-12T04:20:29.948Z,21.70
2017-06-12T04:22:58.395Z,21.70
2017-06-12T04:25:26.048Z,21.70
2017-06-12T04:27:53.502Z,21.60
2017-06-12T04:30:20.964Z,21.60
2017-06-12T04:32:48.628Z,21.60
2017-06-12T04:35:17.216Z,21.60
2017-06-12T04:37:44.682Z,21.60
2017-06-12T04:40:12.720Z,21.60
2017-06-12T04:42:40.189Z,21.60
2017-06-12T04:45:07.661Z,21.60
2017-06-12T04:47:35.259Z,21.60
2017-06-12T04:50:03.157Z,21.60
2017-06-12T04:52:30.628Z,21.60
2017-06-12T04:54:59.064Z,21.60
2017-06-12T04:57:26.564Z,21.60
2017-06-12T04:59:54.066Z,21.60
2017-06-12T05:02:21.579Z,21.70
2017-06-12T05:04:50.582Z,21.70
2017-06-12T05:07:18.038Z,21.70
2017-06-12T05:09:46.281Z,21.70
2017-06-12T05:12:13.897Z,21.70
2017-06-12T05:14:41.551Z,21.70
2017-06-12T05:17:09.024Z,21.70
2017-06-12T05:19:36.507Z,21.70
2017-06-12T05:22:04.032Z,21.70
2017-06-12T05:24:31.503Z,21.70
2017-06-12T05:26:59.175Z,21.70
2017-06-12T05:29:26.657Z,21.70
2017-06-12T05:31:54.134Z,21.70
2017-06-12T05:34:21.648Z,21.80
2017-06-12T05:36:50.641Z,21.80
2017-06-12T05:39:18.171Z,21.80
2017-06-12T05:41:45.869Z,21.90
2017-06-12T05:44:13.462Z,21.90
2017-06-12T05:46:41.131Z,21.90
2017-06-12T05:49:08.582Z,21.90
2017-06-12T05:51:37.303Z,21.90
2017-06-12T05:54:04.964Z,21.90
2017-06-12T05:56:32.453Z,21.90
2017-06-12T05:59:00.657Z,21.90
2017-06-12T06:01:28.138Z,21.90
2017-06-12T06:03:58.712Z,21.90
2017-06-12T06:06:28.963Z,21.90
2017-06-12T06:08:56.834Z,21.90
2017-06-12T06:11:24.314Z,21.90
2017-06-12T06:19:46.260Z,21.90
2017-06-12T06:22:13.751Z,22.00
2017-06-12T06:24:41.268Z,22.00
2017-06-12T06:27:08.738Z,22.00
2017-06-12T06:29:36.253Z,22.00
2017-06-12T06:32:03.787Z,22.10
2017-06-12T06:34:31.259Z,22.10
2017-06-12T06:36:59.309Z,22.30
2017-06-12T06:39:26.769Z,22.30
2017-06-12T06:41:54.223Z,22.30
2017-06-12T06:44:21.744Z,22.40
2017-06-12T06:46:49.206Z,22.40
2017-06-12T06:49:16.668Z,22.40
2017-06-12T06:51:44.862Z,22.40
2017-06-12T06:54:12.306Z,22.40
2017-06-12T06:56:49.780Z,22.40
2017-06-12T06:59:17.617Z,22.30
2017-06-12T07:01:45.057Z,22.20
2017-06-12T07:04:12.530Z,22.20
2017-06-12T07:09:30.582Z,22.20
2017-06-12T07:11:58.261Z,22.30
2017-06-12T07:14:25.703Z,22.40
2017-06-12T07:16:53.199Z,22.40
2017-06-12T07:19:20.662Z,22.50
2017-06-12T07:21:49.209Z,22.60
2017-06-12T07:24:16.685Z,22.60
2017-06-12T07:27:00.266Z,22.70
2017-06-12T07:29:27.887Z,22.70
2017-06-12T07:31:55.346Z,22.80
2017-06-12T07:34:22.810Z,22.70
2017-06-12T07:36:50.455Z,22.80
2017-06-12T07:39:17.970Z,22.80
2017-06-12T07:41:46.280Z,22.80
2017-06-12T07:44:13.999Z,22.90
2017-06-12T07:46:41.456Z,22.90
2017-06-12T07:49:08.936Z,23.00
2017-06-12T07:51:37.222Z,23.00
2017-06-12T07:54:04.685Z,23.00
2017-06-12T07:56:56.053Z,23.00
2017-06-12T07:59:23.507Z,22.90
2017-06-12T08:01:51.058Z,22.90
2017-06-12T08:04:18.507Z,23.00
2017-06-12T08:23:50.491Z,23.20
2017-06-12T08:26:17.933Z,23.10
2017-06-12T08:28:45.380Z,23.10
2017-06-12T08:31:12.877Z,23.20
2017-06-12T08:33:40.347Z,23.20
2017-06-12T08:36:07.794Z,23.30
2017-06-12T08:38:35.281Z,23.30
2017-06-12T08:41:02.748Z,23.20
2017-06-12T08:43:30.189Z,23.20
2017-06-12T08:45:57.659Z,23.30
2017-06-12T08:48:25.277Z,23.30
2017-06-12T08:50:52.741Z,23.30
2017-06-12T08:53:20.252Z,23.40
2017-06-12T08:55:47.735Z,23.40
2017-06-12T08:58:15.239Z,23.50
2017-06-12T09:00:42.687Z,23.50
2017-06-12T09:03:10.168Z,23.50
2017-06-12T09:05:37.681Z,23.60
2017-06-12T09:08:05.159Z,23.70
2017-06-12T09:10:33.011Z,23.80
2017-06-12T09:13:00.639Z,23.80
2017-06-12T09:15:28.105Z,23.90
2017-06-12T09:17:56.372Z,23.80
2017-06-12T09:20:23.974Z,23.90
2017-06-12T09:22:52.040Z,23.90
2017-06-12T09:25:19.484Z,24.10
2017-06-12T09:27:47.011Z,24.20
2017-06-12T09:30:14.483Z,24.30
2017-06-12T09:32:41.951Z,24.40
2017-06-12T09:35:09.457Z,24.50
2017-06-12T09:37:36.938Z,24.50
2017-06-12T09:40:04.432Z,24.70
2017-06-12T09:42:31.931Z,24.60
2017-06-12T09:44:59.381Z,24.70
2017-06-12T09:47:26.891Z,24.90
2017-06-12T09:49:54.343Z,25.10
2017-06-12T09:52:21.795Z,25.30
2017-06-12T09:54:49.303Z,25.40
2017-06-12T09:57:17.168Z,25.60
2017-06-12T09:59:45.023Z,25.70
2017-06-12T10:02:14.380Z,25.70
2017-06-12T10:04:41.827Z,25.90
2017-06-12T10:07:09.294Z,26.10
2017-06-12T10:09:37.340Z,26.30
2017-06-12T10:12:04.796Z,26.40
2017-06-12T10:14:32.853Z,26.60
2017-06-12T10:17:00.317Z,26.30
2017-06-12T10:19:27.805Z,26.10
2017-06-12T10:21:55.319Z,25.60
2017-06-12T10:24:22.790Z,25.30
2017-06-12T10:26:51.302Z,25.10
2017-06-12T10:29:18.819Z,24.80
2017-06-12T10:31:46.239Z,24.60
2017-06-12T10:34:13.690Z,24.40
2017-06-12T10:36:41.679Z,24.30
2017-06-12T10:39:09.133Z,24.20
2017-06-12T10:41:37.441Z,23.90
2017-06-12T10:44:05.092Z,23.80
2017-06-12T10:46:32.540Z,23.70
2017-06-12T10:48:59.997Z,23.70
2017-06-12T10:51:27.608Z,23.70
2017-06-12T10:53:55.060Z,23.70
2017-06-12T10:56:22.959Z,23.60
2017-06-12T10:58:50.434Z,23.60
2017-06-12T11:01:17.903Z,23.60
2017-06-12T11:03:45.367Z,23.60
2017-06-12T11:06:12.959Z,23.60
2017-06-12T11:08:40.426Z,23.50
2017-06-12T11:11:07.884Z,23.50
2017-06-12T11:13:35.743Z,23.50
2017-06-12T11:16:03.175Z,23.60
2017-06-12T11:18:30.658Z,23.70
2017-06-12T11:20:58.269Z,23.70
2017-06-12T11:23:34.742Z,23.80
2017-06-12T11:26:02.434Z,23.90
2017-06-12T11:28:45.710Z,23.90
2017-06-12T11:31:13.331Z,23.80
2017-06-12T11:33:40.787Z,23.80
2017-06-12T11:36:09.079Z,23.80
2017-06-12T11:38:36.575Z,23.80
2017-06-12T11:41:04.041Z,23.90
2017-06-12T11:43:31.504Z,23.90
2017-06-12T11:45:59.060Z,24.00
2017-06-12T11:48:27.028Z,24.00
2017-06-12T11:50:54.500Z,24.10
2017-06-12T11:53:21.991Z,24.10
2017-06-12T11:55:49.429Z,24.10
2017-06-12T11:58:16.885Z,24.10
2017-06-12T12:00:44.770Z,24.20
2017-06-12T12:03:12.232Z,24.10
2017-06-12T12:05:39.696Z,24.20
2017-06-12T12:08:07.940Z,24.20
2017-06-12T12:10:35.387Z,24.30
2017-06-12T12:13:02.825Z,24.30
2017-06-12T12:15:30.427Z,24.30
2017-06-12T12:17:57.881Z,24.40
2017-06-12T12:20:25.327Z,24.40
2017-06-12T12:22:52.796Z,24.50
2017-06-12T12:25:20.240Z,24.50
2017-06-12T12:27:47.883Z,24.60
2017-06-12T12:30:15.350Z,24.60
2017-06-12T12:32:43.195Z,24.60
2017-06-12T12:35:10.666Z,24.60
2017-06-12T12:37:38.115Z,24.60
2017-06-12T12:40:05.572Z,24.60
2017-06-12T12:42:33.062Z,24.60
2017-06-12T12:45:03.855Z,24.70
2017-06-12T12:47:31.311Z,24.70
2017-06-12T12:49:58.932Z,24.70
2017-06-12T12:52:26.408Z,24.70
2017-06-12T12:54:54.252Z,24.80
2017-06-12T12:57:21.767Z,24.80
2017-06-12T12:59:49.214Z,24.80
2017-06-12T13:02:16.711Z,24.80
2017-06-12T13:04:44.235Z,24.80
2017-06-12T13:07:12.068Z,24.80
2017-06-12T13:09:39.783Z,24.80
2017-06-12T13:12:07.820Z,25.00
2017-06-12T13:14:35.291Z,25.00
2017-06-12T13:17:02.748Z,25.00
2017-06-12T13:19:30.376Z,25.00
2017-06-12T13:21:58.164Z,25.00
2017-06-12T13:24:25.599Z,25.00
2017-06-12T13:26:53.087Z,25.00
2017-06-12T13:29:22.985Z,25.00
2017-06-12T13:31:50.506Z,25.00
2017-06-12T13:34:18.413Z,25.00
2017-06-12T13:36:45.880Z,25.00
2017-06-12T13:39:13.324Z,25.00
2017-06-12T13:41:40.832Z,25.10
2017-06-12T13:44:08.307Z,25.20
2017-06-12T13:46:35.778Z,25.20
2017-06-12T13:49:03.312Z,25.30
2017-06-12T13:51:30.767Z,25.40
2017-06-12T13:53:58.224Z,25.40
2017-06-12T13:56:25.720Z,25.50
2017-06-12T13:58:53.861Z,25.50
2017-06-12T14:01:21.353Z,25.60
2017-06-12T14:03:48.840Z,25.60
2017-06-12T14:06:16.315Z,25.70
2017-06-12T14:08:43.801Z,25.70
2017-06-12T14:11:11.327Z,25.80
2017-06-12T14:13:39.574Z,25.90
2017-06-12T14:16:07.635Z,26.00
2017-06-12T14:18:35.124Z,26.20
2017-06-12T14:21:02.573Z,26.20
2017-06-12T14:23:30.228Z,26.20
2017-06-12T14:25:57.691Z,26.30
2017-06-12T14:28:25.140Z,26.20
2017-06-12T14:30:52.626Z,26.30
2017-06-12T14:33:20.094Z,26.30
2017-06-12T14:35:47.538Z,26.30
2017-06-12T14:38:15.011Z,26.30
2017-06-12T14:40:42.472Z,26.40
2017-06-12T14:43:09.935Z,26.40
2017-06-12T14:45:38.757Z,26.40
2017-06-12T14:48:06.199Z,26.50
2017-06-12T14:50:33.659Z,26.50
2017-06-12T14:53:01.301Z,26.50
2017-06-12T14:55:28.768Z,26.50
2017-06-12T14:57:57.349Z,26.60
2017-06-12T15:00:24.971Z,26.60
2017-06-12T15:02:52.455Z,26.60
2017-06-12T15:05:19.927Z,26.60
2017-06-12T15:07:47.420Z,26.60
2017-06-12T15:10:14.874Z,26.60
2017-06-12T15:12:42.320Z,26.60
2017-06-12T15:15:10.065Z,26.60
2017-06-12T15:17:37.529Z,26.50
2017-06-12T15:20:05.198Z,26.60
2017-06-12T15:22:33.082Z,26.70
2017-06-12T15:25:00.521Z,26.70
2017-06-12T15:27:27.964Z,26.70
2017-06-12T15:29:55.597Z,26.60
2017-06-12T15:32:23.105Z,26.50
2017-06-12T15:34:50.568Z,26.40
2017-06-12T15:37:18.184Z,26.40
2017-06-12T15:39:45.622Z,26.20
2017-06-12T15:42:13.090Z,26.20
2017-06-12T15:44:40.581Z,26.30
2017-06-12T15:47:09.632Z,26.30
2017-06-12T15:49:37.082Z,26.30
2017-06-12T15:52:04.590Z,26.30
2017-06-12T15:54:32.046Z,26.30
2017-06-12T15:56:59.879Z,26.40
2017-06-12T15:59:27.379Z,26.40
2017-06-12T16:01:55.643Z,26.50
2017-06-12T16:04:23.280Z,26.60
2017-06-12T16:06:50.730Z,26.60
2017-06-12T16:09:18.189Z,26.50
2017-06-12T16:11:45.827Z,26.50
2017-06-12T16:14:13.267Z,26.40
2017-06-12T16:19:31.563Z,26.40
2017-06-12T16:21:59.155Z,26.30
2017-06-12T16:24:26.640Z,26.20
2017-06-12T16:26:54.104Z,26.20
2017-06-12T16:29:21.579Z,26.00
2017-06-12T16:31:49.239Z,26.00
2017-06-12T16:34:16.696Z,25.80
2017-06-12T16:36:44.155Z,25.70
2017-06-12T16:39:12.382Z,25.60
2017-06-12T16:41:39.831Z,25.50
2017-06-12T16:44:07.294Z,25.50
2017-06-12T16:46:34.794Z,25.40
2017-06-12T16:49:02.241Z,25.40
2017-06-12T16:51:29.691Z,25.40
2017-06-12T16:53:58.235Z,25.50
2017-06-12T16:56:25.685Z,25.50
2017-06-12T16:58:53.123Z,25.50
2017-06-12T17:01:20.648Z,25.60
2017-06-12T17:03:48.517Z,25.60
2017-06-12T17:06:16.351Z,25.60
2017-06-12T17:08:43.981Z,25.60
2017-06-12T17:11:11.436Z,25.60
2017-06-12T17:13:38.875Z,25.60
2017-06-12T17:16:06.389Z,25.70
2017-06-12T17:18:33.881Z,25.70
2017-06-12T17:21:01.346Z,25.70
2017-06-12T17:23:28.883Z,25.60
2017-06-12T17:25:56.355Z,25.50
2017-06-12T17:28:23.826Z,25.50
2017-06-12T17:30:51.456Z,25.60
2017-06-12T17:33:18.891Z,25.60
2017-06-12T17:35:46.339Z,25.50
2017-06-12T17:38:13.835Z,25.40
2017-06-12T17:40:41.278Z,25.40
2017-06-12T17:43:08.720Z,25.30
2017-06-12T17:45:37.165Z,25.30
2017-06-12T17:48:04.612Z,25.30
2017-06-12T17:50:32.103Z,25.20
2017-06-12T17:52:59.845Z,25.10
2017-06-12T17:55:27.287Z,24.90
2017-06-12T17:57:54.730Z,24.70
2017-06-12T18:00:22.447Z,24.70
2017-06-12T18:02:51.317Z,24.70
2017-06-12T18:05:18.767Z,24.60
2017-06-12T18:07:46.666Z,24.60
2017-06-12T18:10:14.352Z,24.60
2017-06-12T18:12:41.790Z,24.40
2017-06-12T18:15:09.267Z,24.20
2017-06-12T18:17:36.712Z,24.10
2017-06-12T18:20:04.395Z,24.00
2017-06-12T18:22:31.847Z,23.90
2017-06-12T18:24:59.341Z,23.70
2017-06-12T18:27:26.834Z,23.70
2017-06-12T18:29:54.304Z,23.70
2017-06-12T18:32:21.803Z,23.50
2017-06-12T18:34:49.268Z,23.50
2017-06-12T18:37:16.756Z,23.30
2017-06-12T18:39:44.759Z,23.30
2017-06-12T18:42:12.215Z,23.10
2017-06-12T18:44:39.662Z,23.10
2017-06-12T18:47:07.130Z,23.00
2017-06-12T18:49:34.613Z,23.00
2017-06-12T18:52:02.905Z,22.80
2017-06-12T18:54:30.365Z,22.80
2017-06-12T18:56:58.000Z,22.70
2017-06-12T18:59:25.459Z,22.70
2017-06-12T19:01:52.904Z,22.70
2017-06-12T19:04:20.387Z,22.60
2017-06-12T19:06:47.837Z,22.60
2017-06-12T19:09:15.307Z,22.60
2017-06-12T19:11:42.783Z,22.50
2017-06-12T19:14:10.231Z,22.50
2017-06-12T19:16:37.797Z,22.40
2017-06-12T19:19:05.239Z,22.30
2017-06-12T19:21:32.690Z,22.30
2017-06-12T19:24:00.167Z,22.20
2017-06-12T19:26:27.607Z,22.20
2017-06-12T19:28:55.043Z,22.10
2017-06-12T19:31:22.958Z,22.10
2017-06-12T19:33:50.413Z,22.10
2017-06-12T19:39:08.563Z,21.90
2017-06-12T19:41:36.249Z,21.80
2017-06-12T19:44:03.716Z,21.70
2017-06-12T19:46:31.528Z,21.60
2017-06-12T19:48:59.034Z,21.60
2017-06-12T19:51:26.566Z,21.60
2017-06-12T19:53:54.352Z,21.50
2017-06-12T19:56:21.835Z,21.50
2017-06-12T19:58:49.329Z,21.40
2017-06-12T20:01:17.389Z,21.40
2017-06-12T20:03:44.829Z,21.30
2017-06-12T20:06:12.305Z,21.30
2017-06-12T20:08:39.760Z,21.40
2017-06-12T20:11:07.216Z,21.30
2017-06-12T20:13:34.883Z,21.20
2017-06-12T20:16:02.358Z,21.20
2017-06-12T20:18:30.301Z,21.10
2017-06-12T20:20:58.019Z,21.00
2017-06-12T20:23:25.485Z,21.00
2017-06-12T20:25:54.225Z,20.90
2017-06-12T20:28:22.304Z,20.90
2017-06-12T20:30:49.760Z,20.80
2017-06-12T20:33:17.239Z,20.80
2017-06-12T20:35:44.893Z,20.80
2017-06-12T20:38:12.341Z,20.80
2017-06-12T20:40:40.671Z,20.70
2017-06-12T20:43:08.132Z,20.60
2017-06-12T20:45:35.596Z,20.60
2017-06-12T20:48:03.085Z,20.50
2017-06-12T20:50:31.366Z,20.50
2017-06-12T20:52:58.820Z,20.50
2017-06-12T20:55:26.315Z,20.50
2017-06-12T20:57:53.759Z,20.50
2017-06-12T21:00:21.215Z,20.40
2017-06-12T21:02:48.908Z,20.40
2017-06-12T21:05:17.146Z,20.40
2017-06-12T21:07:44.615Z,20.40
2017-06-12T21:10:12.279Z,20.30
2017-06-12T21:12:39.717Z,20.30
2017-06-12T21:15:07.189Z,20.20
2017-06-12T21:17:34.674Z,20.20
2017-06-12T21:20:02.119Z,20.10
2017-06-12T21:22:29.560Z,20.10
2017-06-12T21:24:57.066Z,20.10
2017-06-12T21:27:24.515Z,20.10
2017-06-12T21:29:51.982Z,20.10
2017-06-12T21:32:19.627Z,20.10
2017-06-12T21:34:47.124Z,20.10
2017-06-12T21:37:14.579Z,20.00
2017-06-12T21:39:42.072Z,19.90
2017-06-12T21:42:09.530Z,19.90
2017-06-12T21:44:36.988Z,19.80
2017-06-12T21:47:04.475Z,19.80
2017-06-12T21:49:31.911Z,19.80
2017-06-12T21:51:59.366Z,19.80
2017-06-12T21:54:26.851Z,19.80
2017-06-12T21:56:55.132Z,19.70
2017-06-12T21:59:22.583Z,19.70
2017-06-12T22:01:50.061Z,19.70
2017-06-12T22:04:17.519Z,19.60
2017-06-12T22:06:45.198Z,19.60
2017-06-12T22:09:12.671Z,19.60
2017-06-12T22:11:40.145Z,19.60
2017-06-12T22:14:07.668Z,19.60
2017-06-12T22:16:35.900Z,19.60
2017-06-12T22:19:03.364Z,19.50
2017-06-12T22:21:31.893Z,19.50
2017-06-12T22:23:59.581Z,19.50
2017-06-12T22:26:27.435Z,19.40
2017-06-12T22:28:54.926Z,19.40
2017-06-12T22:31:22.366Z,19.30
2017-06-12T22:33:49.818Z,19.40
2017-06-12T22:36:17.478Z,19.30
2017-06-12T22:38:44.934Z,19.30
2017-06-12T22:41:12.374Z,19.30
2017-06-12T22:43:40.094Z,19.20
2017-06-12T22:46:07.552Z,19.20
2017-06-12T22:48:35.015Z,19.20
2017-06-12T22:51:02.515Z,19.20
2017-06-12T22:53:30.004Z,19.20
2017-06-12T22:55:57.672Z,19.10
2017-06-12T22:58:25.125Z,19.10
2017-06-12T23:00:52.574Z,19.10
2017-06-12T23:03:20.248Z,19.00
2017-06-12T23:05:47.683Z,19.00
2017-06-12T23:08:15.120Z,19.00
2017-06-12T23:10:42.605Z,18.90
2017-06-12T23:13:10.067Z,18.90
2017-06-12T23:15:37.511Z,18.80
2017-06-12T23:18:05.142Z,18.70
2017-06-12T23:20:32.601Z,18.60
2017-06-12T23:23:02.887Z,18.50
2017-06-12T23:25:30.512Z,18.40
2017-06-12T23:27:57.953Z,18.40
2017-06-12T23:30:25.444Z,18.30
2017-06-12T23:32:52.905Z,18.20
2017-06-12T23:35:20.552Z,18.10
2017-06-12T23:37:48.005Z,18.10
2017-06-12T23:40:15.469Z,18.00
2017-06-12T23:42:42.964Z,17.90
2017-06-12T23:45:10.418Z,17.80
2017-06-12T23:47:37.876Z,17.80
2017-06-12T23:50:05.401Z,17.70
2017-06-12T23:52:32.839Z,17.60
2017-06-12T23:55:00.319Z,17.60
2017-06-12T23:57:27.944Z,17.60
2017-06-12T23:59:55.385Z,17.50
